Time;durP1;ratioP1;P1;durP2;ratioP2;P2;SDS_P1;SDS_P2;PMS_P1;PMS_P2;Temp;Humidity;BMP_temperature;BMP_pressure;BME280_temperature;BME280_humidity;BME280_pressure;Samples;Min_cycle;Max_cycle;Signal;HPM_P1;HPM_P2
2022/09/23 00:00:40;;;;;;;2.33;1.50;;;;;;;10.71;79.01;100039.41;12229004;19;20034;-79
2022/09/23 00:04:41;;;;;;;;;;;;;;;10.71;78.87;100044.09;12204335;19;20006;-80
2022/09/23 00:08:44;;;;;;;2.80;1.83;;;;;;;10.70;78.45;100053.44;12234759;19;19911;-79
2022/09/23 00:12:48;;;;;;;3.42;1.85;;;;;;;10.62;78.91;100045.53;12236002;19;20560;-79
2022/09/23 00:16:49;;;;;;;3.72;1.70;;;;;;;10.53;79.32;100044.25;12210776;19;20022;-79
2022/09/23 00:20:51;;;;;;;3.25;1.90;;;;;;;10.45;79.59;100040.81;12238679;19;20039;-79
2022/09/23 00:24:53;;;;;;;3.53;1.80;;;;;;;10.39;80.25;100041.78;12237065;19;20021;-79
2022/09/23 00:28:55;;;;;;;5.88;2.03;;;;;;;10.32;80.93;100041.09;12214942;19;20094;-79
2022/09/23 00:32:56;;;;;;;4.35;1.73;;;;;;;10.27;82.25;100040.97;12234307;19;20018;-79
2022/09/23 00:36:58;;;;;;;3.78;1.90;;;;;;;10.21;82.76;100042.75;12234768;19;20034;-79
2022/09/23 00:41:01;;;;;;;4.25;2.13;;;;;;;10.15;82.58;100035.44;12209693;19;20030;-79
2022/09/23 00:45:03;;;;;;;3.60;1.70;;;;;;;10.11;82.93;100033.41;12231946;19;20027;-79
2022/09/23 00:49:14;;;;;;;5.30;2.22;;;;;;;10.09;83.76;100032.81;12233373;19;20007;-79
2022/09/23 00:53:20;;;;;;;3.42;2.30;;;;;;;10.07;84.71;100024.78;12208117;19;20066;-80
2022/09/23 00:57:22;;;;;;;7.55;2.45;;;;;;;10.03;85.21;100026.38;12229436;19;20025;-79
2022/09/23 01:01:24;;;;;;;;;;;;;;;10.01;86.25;100026.59;12211281;19;20018;-79
2022/09/23 01:05:26;;;;;;;2.88;1.98;;;;;;;9.97;85.54;100021.81;12232777;19;19919;-80
2022/09/23 01:09:28;;;;;;;2.42;1.67;;;;;;;9.94;86.01;100017.63;12237784;19;20010;-80
2022/09/23 01:13:39;;;;;;;4.03;1.98;;;;;;;9.92;86.48;100025.28;12208514;19;20017;-79
2022/09/23 01:17:52;;;;;;;3.53;2.13;;;;;;;9.89;86.44;100013.94;12225237;19;20010;-79
2022/09/23 01:22:08;;;;;;;5.55;2.20;;;;;;;9.88;86.22;100009.50;12226196;19;20371;-79
2022/09/23 01:26:13;;;;;;;4.45;2.20;;;;;;;9.87;85.92;100003.13;12200420;19;20006;-79
2022/09/23 01:30:52;;;;;;;3.20;1.55;;;;;;;9.89;86.00;99989.97;12225311;19;20479;-79
2022/09/23 01:35:18;;;;;;;4.03;1.98;;;;;;;9.88;86.14;99990.25;12203236;19;20033;-79
2022/09/23 01:39:37;;;;;;;3.55;2.17;;;;;;;9.89;86.44;99992.75;12220738;19;20043;-79
2022/09/23 01:43:53;;;;;;;8.38;2.13;;;;;;;9.84;86.51;99983.53;12205938;19;20018;-79
2022/09/23 01:48:03;;;;;;;4.75;2.17;;;;;;;9.75;86.47;99985.81;12229918;19;20083;-79
2022/09/23 01:52:24;;;;;;;4.15;2.22;;;;;;;9.65;86.61;99986.41;12231852;19;20014;-79
2022/09/23 01:56:38;;;;;;;4.40;2.22;;;;;;;9.59;87.50;99985.44;12207155;19;20007;-79
2022/09/23 02:00:49;;;;;;;6.57;2.30;;;;;;;9.57;88.13;99992.25;12227432;19;20006;-79
2022/09/23 02:04:55;;;;;;;4.38;2.38;;;;;;;9.55;89.07;99984.28;12206313;19;20044;-78
2022/09/23 02:09:23;;;;;;;4.38;2.35;;;;;;;9.55;90.96;99988.94;12231157;19;20019;-79
2022/09/23 02:13:33;;;;;;;4.25;2.15;;;;;;;9.56;90.84;99987.84;12205108;19;20036;-79
2022/09/23 02:17:58;;;;;;;3.67;1.88;;;;;;;9.57;90.89;99984.84;12223297;19;20025;-79
2022/09/23 02:22:06;;;;;;;5.20;1.80;;;;;;;9.57;90.43;99984.00;12228324;19;20007;-79
2022/09/23 02:26:32;;;;;;;3.28;2.15;;;;;;;9.52;90.37;99975.66;12204967;19;20025;-79
2022/09/23 02:30:45;;;;;;;3.17;1.90;;;;;;;9.41;90.28;99980.06;12218744;19;20546;-79
2022/09/23 02:35:05;;;;;;;3.20;1.85;;;;;;;9.26;90.85;99974.19;12199671;19;20484;-79
2022/09/23 02:39:11;;;;;;;3.22;2.15;;;;;;;9.18;91.80;99971.78;12223051;19;20083;-79
2022/09/23 02:43:21;;;;;;;2.97;1.95;;;;;;;9.16;92.25;99968.44;12200266;19;20022;-79
2022/09/23 02:47:27;;;;;;;3.75;1.98;;;;;;;9.13;93.60;99967.84;12221371;19;20074;-78
2022/09/23 02:51:33;;;;;;;4.80;2.55;;;;;;;9.12;94.17;99966.16;12216296;19;20018;-78
2022/09/23 02:55:35;;;;;;;5.40;2.63;;;;;;;9.10;94.91;99957.31;12190259;19;20070;-79
2022/09/23 02:59:37;;;;;;;5.63;2.10;;;;;;;9.10;95.82;99954.56;12221203;19;20015;-78
2022/09/23 03:03:48;;;;;;;3.00;2.13;;;;;;;9.11;96.06;99948.00;12218590;19;20002;-78
2022/09/23 03:08:24;;;;;;;3.10;2.00;;;;;;;9.13;96.64;99939.50;12191004;19;20013;-78
2022/09/23 03:13:03;;;;;;;3.80;2.35;;;;;;;9.15;96.39;99942.03;12212950;19;20026;-78
2022/09/23 03:17:18;;;;;;;3.78;2.17;;;;;;;9.17;95.99;99945.38;12197768;19;20395;-79
2022/09/23 03:21:41;;;;;;;5.35;2.53;;;;;;;9.18;96.44;99928.63;12218630;19;20010;-78
2022/09/23 03:25:46;;;;;;;3.35;2.00;;;;;;;9.21;96.18;99941.06;12231533;19;20018;-78
2022/09/23 03:29:50;;;;;;;5.03;2.20;;;;;;;9.22;95.99;99932.59;12250743;19;20010;-78
2022/09/23 03:33:56;;;;;;;5.72;2.17;;;;;;;9.20;96.09;99936.66;12253739;19;20585;-79
2022/09/23 03:38:11;;;;;;;6.57;2.83;;;;;;;9.15;95.63;99933.78;12234997;19;20019;-78
2022/09/23 03:42:49;;;;;;;5.18;2.25;;;;;;;9.07;95.19;99935.81;12255960;19;20014;-78
2022/09/23 03:46:52;;;;;;;3.03;1.88;;;;;;;9.02;94.97;99926.59;12234077;19;20010;-78
2022/09/23 03:50:53;;;;;;;6.57;2.28;;;;;;;8.99;95.64;99921.56;12235436;19;20022;-78
2022/09/23 03:54:55;;;;;;;6.00;2.10;;;;;;;8.98;96.71;99912.47;12219533;19;20003;-78
2022/09/23 03:59:00;;;;;;;5.63;2.40;;;;;;;8.97;97.06;99921.78;12206345;19;20335;-78
2022/09/23 04:03:01;;;;;;;4.68;1.90;;;;;;;8.95;97.47;99917.59;12215713;19;20494;-78
2022/09/23 04:07:03;;;;;;;4.30;2.28;;;;;;;8.91;98.48;99914.50;12216897;19;20013;-78
2022/09/23 04:11:05;;;;;;;4.38;2.40;;;;;;;8.87;98.44;99916.88;12199705;19;20018;-78
2022/09/23 04:15:07;;;;;;;4.00;2.00;;;;;;;8.82;98.93;99911.25;12222230;19;20041;-77
2022/09/23 04:19:10;;;;;;;4.15;2.13;;;;;;;8.78;98.98;99912.81;12219823;19;20022;-78
2022/09/23 04:23:12;;;;;;;4.82;2.25;;;;;;;8.77;99.42;99913.88;12199291;19;20027;-78
2022/09/23 04:27:13;;;;;;;4.03;2.47;;;;;;;8.76;99.24;99911.38;12221473;19;20190;-78
2022/09/23 04:31:15;;;;;;;4.22;2.70;;;;;;;8.73;99.46;99901.69;12200686;19;20006;-78
2022/09/23 04:35:17;;;;;;;6.78;2.55;;;;;;;8.70;99.72;99906.81;12220500;19;20010;-78
2022/09/23 04:39:18;;;;;;;3.42;2.17;;;;;;;8.65;100.00;99916.59;12219364;19;20018;-78
2022/09/23 04:43:22;;;;;;;5.22;2.35;;;;;;;8.60;100.00;99916.47;12202500;19;20115;-78
2022/09/23 04:47:23;;;;;;;6.45;2.45;;;;;;;8.52;100.00;99922.28;12223018;19;20014;-78
2022/09/23 04:51:25;;;;;;;3.58;2.22;;;;;;;8.44;100.00;99922.59;12224160;19;20497;-78
2022/09/23 04:55:28;;;;;;;4.10;2.20;;;;;;;8.33;100.00;99918.72;12216315;19;20007;-78
2022/09/23 04:59:29;;;;;;;3.55;2.15;;;;;;;8.27;100.00;99924.28;12236159;19;20059;-78
2022/09/23 05:03:34;;;;;;;3.80;2.28;;;;;;;8.22;100.00;99917.59;12225341;19;20037;-78
2022/09/23 05:07:36;;;;;;;5.40;2.33;;;;;;;8.16;100.00;99928.69;12200448;19;20352;-78
2022/09/23 05:11:37;;;;;;;4.00;2.50;;;;;;;8.06;100.00;99923.75;12227932;19;20018;-79
2022/09/23 05:15:39;;;;;;;4.60;2.83;;;;;;;7.94;100.00;99925.56;12228475;19;20008;-78
2022/09/23 05:19:41;;;;;;;6.75;2.95;;;;;;;7.84;100.00;99931.59;12204179;19;20002;-79
2022/09/23 05:23:53;;;;;;;5.35;3.40;;;;;;;7.83;100.00;99940.06;12213877;19;20015;-79
2022/09/23 05:27:55;;;;;;;4.38;2.50;;;;;;;7.79;100.00;99933.34;12211874;19;20018;-81
2022/09/23 05:31:57;;;;;;;4.15;2.65;;;;;;;7.82;100.00;99930.13;12190954;19;20014;-80
2022/09/23 05:36:00;;;;;;;4.70;2.60;;;;;;;7.86;100.00;99923.97;12221935;19;20014;-80
2022/09/23 05:40:01;;;;;;;3.67;2.20;;;;;;;7.95;100.00;99932.75;12215708;19;20022;-79
2022/09/23 05:44:03;;;;;;;8.80;2.95;;;;;;;8.00;100.00;99935.63;12207072;19;20077;-80
2022/09/23 05:48:05;;;;;;;3.40;2.58;;;;;;;8.09;100.00;99944.38;12222680;19;20401;-80
2022/09/23 05:52:07;;;;;;;3.25;2.47;;;;;;;8.16;100.00;99940.50;12217594;19;20007;-80
2022/09/23 05:56:08;;;;;;;7.60;3.08;;;;;;;8.26;100.00;99939.09;12197620;19;20022;-80
2022/09/23 06:00:10;;;;;;;7.50;2.63;;;;;;;8.33;100.00;99948.06;12215635;19;20006;-80
2022/09/23 06:04:13;;;;;;;5.30;2.92;;;;;;;8.43;100.00;99945.66;12191643;19;20094;-80
2022/09/23 06:08:14;;;;;;;9.13;3.53;;;;;;;8.54;100.00;99947.63;12209983;19;20043;-81
2022/09/23 06:12:16;;;;;;;6.38;3.50;;;;;;;8.64;100.00;99947.88;12209450;19;20025;-79
2022/09/23 06:16:18;;;;;;;4.20;2.90;;;;;;;8.77;100.00;99941.34;12201783;19;20010;-78
2022/09/23 06:20:19;;;;;;;5.28;2.67;;;;;;;8.92;100.00;99949.13;12199364;19;20030;-79
2022/09/23 06:24:21;;;;;;;4.00;2.65;;;;;;;9.05;100.00;99946.19;12216029;19;20021;-78
2022/09/23 06:28:32;;;;;;;5.00;2.95;;;;;;;9.19;100.00;99940.47;12203175;19;20026;-79
2022/09/23 06:32:34;;;;;;;5.78;2.60;;;;;;;9.32;100.00;99930.09;12221630;19;20006;-79
2022/09/23 06:36:36;;;;;;;4.55;3.30;;;;;;;9.47;100.00;99939.78;12227725;19;20010;-79
2022/09/23 06:40:49;;;;;;;5.03;3.40;;;;;;;9.61;100.00;99929.34;12204423;19;20003;-79
2022/09/23 06:44:51;;;;;;;4.43;2.60;;;;;;;9.71;100.00;99933.16;12223542;19;20362;-80
2022/09/23 06:48:52;;;;;;;5.82;2.63;;;;;;;9.85;100.00;99946.69;12223008;19;20074;-79
2022/09/23 06:52:55;;;;;;;4.95;3.22;;;;;;;9.95;100.00;99935.88;12203073;19;20078;-80
2022/09/23 06:56:56;;;;;;;4.78;2.80;;;;;;;10.08;100.00;99940.28;12235599;19;20011;-79
2022/09/23 07:01:06;;;;;;;8.25;3.13;;;;;;;10.17;99.75;99933.31;12226954;19;20013;-80
2022/09/23 07:05:08;;;;;;;4.72;3.00;;;;;;;10.27;99.73;99933.56;12204430;19;20041;-79
2022/09/23 07:09:10;;;;;;;6.57;2.83;;;;;;;10.44;99.99;99931.69;12226586;19;20007;-78
2022/09/23 07:13:12;;;;;;;5.32;2.97;;;;;;;10.60;99.42;99927.31;12201831;19;20007;-79
2022/09/23 07:17:16;;;;;;;4.35;2.60;;;;;;;10.80;98.71;99931.53;12229887;19;20015;-79
2022/09/23 07:21:18;;;;;;;6.07;2.72;;;;;;;11.01;98.82;99930.78;12224817;19;20010;-78
2022/09/23 07:25:21;;;;;;;8.10;3.92;;;;;;;11.24;98.33;99938.03;12203666;19;20118;-80
2022/09/23 07:29:23;;;;;;;6.38;3.53;;;;;;;11.30;96.90;99936.19;12239101;19;20026;-79
2022/09/23 07:33:31;;;;;;;9.30;4.60;;;;;;;11.39;96.41;99941.06;12270958;19;20006;-78
2022/09/23 07:37:34;;;;;;;5.60;3.50;;;;;;;11.54;95.62;99934.09;12250849;19;20003;-79
2022/09/23 07:41:36;;;;;;;5.03;3.40;;;;;;;11.69;95.63;99945.38;12275469;19;20018;-79
2022/09/23 07:45:42;;;;;;;9.27;3.60;;;;;;;11.90;95.20;99940.16;12254438;19;20042;-79
2022/09/23 07:49:43;;;;;;;8.40;3.72;;;;;;;12.13;93.69;99937.16;12225194;19;20014;-79
2022/09/23 07:53:50;;;;;;;8.43;3.60;;;;;;;12.26;92.21;99944.22;12241463;19;20025;-80
2022/09/23 07:57:51;;;;;;;10.50;3.40;;;;;;;12.40;90.71;99950.19;12234341;19;20378;-80
2022/09/23 08:01:55;;;;;;;5.93;3.60;;;;;;;12.58;89.18;99958.13;12209848;19;20014;-79
2022/09/23 08:06:08;;;;;;;9.05;4.50;;;;;;;12.71;87.91;99949.44;12228734;19;20035;-79
2022/09/23 08:10:10;;;;;;;8.50;3.50;;;;;;;12.86;86.96;99956.22;12231934;19;20042;-80
2022/09/23 08:14:16;;;;;;;9.95;4.05;;;;;;;12.94;86.72;99961.28;12208424;19;20066;-80
2022/09/23 08:18:18;;;;;;;4.50;3.03;;;;;;;13.04;84.64;99966.06;12225677;19;20006;-80
2022/09/23 08:22:19;;;;;;;4.90;2.70;;;;;;;13.03;82.33;99967.16;12208350;19;20007;-80
2022/09/23 08:26:21;;;;;;;4.55;2.85;;;;;;;13.12;81.22;99963.66;12226012;19;21468;-80
2022/09/23 08:30:23;;;;;;;5.45;3.40;;;;;;;13.22;77.44;99963.75;12225686;19;20011;-80
2022/09/23 08:34:26;;;;;;;4.72;3.22;;;;;;;13.48;74.88;99965.94;12200198;19;20006;-80
2022/09/23 08:38:28;;;;;;;4.78;3.33;;;;;;;13.83;74.68;99970.84;12229663;19;20002;-80
2022/09/23 08:42:32;;;;;;;6.20;3.40;;;;;;;14.09;72.13;99974.59;12227128;19;20010;-80
2022/09/23 08:46:40;;;;;;;6.97;3.70;;;;;;;14.33;71.38;99966.69;12209443;19;20887;-81
2022/09/23 08:50:46;;;;;;;6.13;3.85;;;;;;;14.41;70.26;99966.16;12227515;19;20023;-81
2022/09/23 08:54:47;;;;;;;5.72;4.10;;;;;;;14.66;69.65;99967.38;12233113;19;20026;-82
2022/09/23 08:59:20;;;;;;;8.70;4.57;;;;;;;14.89;67.88;99968.84;12206961;19;20010;-79
2022/09/23 09:03:25;;;;;;;8.45;4.78;;;;;;;15.02;67.15;99963.59;12234156;19;20017;-81
2022/09/23 09:07:33;;;;;;;6.95;4.60;;;;;;;15.24;66.81;99960.53;12205555;19;20043;-79
2022/09/23 09:11:45;;;;;;;7.90;4.88;;;;;;;15.24;66.20;99956.94;12226198;19;20014;-79
2022/09/23 09:16:17;;;;;;;7.53;4.80;;;;;;;15.25;64.34;99950.25;12229523;19;20046;-78
2022/09/23 09:20:57;;;;;;;6.43;4.15;;;;;;;15.60;64.47;99945.81;12211560;19;20014;-79
2022/09/23 09:25:10;;;;;;;6.60;4.25;;;;;;;15.77;63.16;99946.38;12230711;19;20007;-78
2022/09/23 09:29:30;;;;;;;8.30;4.65;;;;;;;15.86;63.84;99941.91;12196209;19;20094;-80
2022/09/23 09:33:46;;;;;;;6.90;4.10;;;;;;;16.00;63.14;99938.53;12224682;19;20066;-81
2022/09/23 09:37:47;;;;;;;9.20;4.57;;;;;;;16.03;61.63;99927.69;12203760;19;20017;-81
2022/09/23 09:41:50;;;;;;;6.93;4.20;;;;;;;16.25;61.43;99932.88;12223124;19;20028;-81
2022/09/23 09:46:01;;;;;;;6.47;4.38;;;;;;;16.54;61.29;99929.41;12221186;19;20006;-81
2022/09/23 09:50:07;;;;;;;7.30;4.03;;;;;;;16.52;59.53;99923.28;12201055;19;20021;-78
2022/09/23 09:54:23;;;;;;;5.65;4.00;;;;;;;16.75;59.48;99917.03;12223795;19;20042;-80
2022/09/23 09:58:29;;;;;;;6.13;3.85;;;;;;;16.91;60.35;99903.88;12200698;19;20011;-79
2022/09/23 10:02:34;;;;;;;8.80;4.13;;;;;;;17.08;60.29;99897.91;12220087;19;20011;-81
2022/09/23 10:06:36;;;;;;;8.02;4.13;;;;;;;17.38;59.86;99896.81;12218970;19;20011;-81
2022/09/23 10:10:39;;;;;;;7.03;4.40;;;;;;;17.27;58.59;99889.66;12205177;19;20017;-79
2022/09/23 10:14:42;;;;;;;9.55;4.35;;;;;;;17.44;58.47;99890.06;12224559;19;20063;-81
2022/09/23 10:18:46;;;;;;;9.93;5.03;;;;;;;17.66;58.19;99886.75;12227888;19;20540;-81
2022/09/23 10:22:48;;;;;;;10.75;4.93;;;;;;;17.67;58.15;99887.59;12196178;19;20029;-81
2022/09/23 10:27:06;;;;;;;10.90;4.75;;;;;;;17.74;58.58;99893.66;12222776;19;20026;-80
2022/09/23 10:31:12;;;;;;;7.03;4.38;;;;;;;17.77;59.02;99885.56;12263729;19;20036;-79
2022/09/23 10:35:16;;;;;;;6.30;4.18;;;;;;;18.14;57.72;99888.75;12217609;19;20011;-80
2022/09/23 10:48:34;;;;;;;6.93;3.88;;;;;;;19.13;54.00;99869.16;12218406;19;19998;-82
2022/09/23 10:53:00;;;;;;;4.82;3.67;;;;;;;19.38;53.82;99867.06;12195191;19;20124;-81
2022/09/23 10:57:36;;;;;;;5.50;3.15;;;;;;;19.39;53.29;99859.50;12217219;19;20419;-81
2022/09/23 11:01:50;;;;;;;5.45;3.33;;;;;;;19.52;53.13;99851.13;12207866;19;20597;-80
2022/09/23 11:06:13;;;;;;;6.43;3.70;;;;;;;19.78;52.28;99859.91;12225139;19;20035;-81
2022/09/23 11:10:27;;;;;;;6.13;3.85;;;;;;;19.90;48.96;99841.75;12206522;19;20020;-80
2022/09/23 11:15:05;;;;;;;4.38;3.05;;;;;;;20.26;50.11;99837.06;12222663;19;20014;-81
2022/09/23 11:19:32;;;;;;;5.93;3.40;;;;;;;20.31;49.88;99836.13;12227685;19;20007;-81
2022/09/23 11:24:28;;;;;;;6.53;3.60;;;;;;;20.22;49.01;99832.41;12200488;19;20014;-82
2022/09/23 11:28:57;;;;;;;5.57;3.05;;;;;;;20.46;48.22;99837.72;12194075;19;20038;-82
2022/09/23 11:33:07;;;;;;;5.72;3.33;;;;;;;20.97;47.90;99818.91;12224465;19;20040;-81
2022/09/23 11:37:13;;;;;;;6.90;3.50;;;;;;;21.25;47.05;99820.41;12218139;19;20051;-83
2022/09/23 11:41:18;;;;;;;4.97;3.28;;;;;;;21.43;45.99;99820.53;12196968;19;20010;-82
2022/09/23 11:45:31;;;;;;;9.02;3.80;;;;;;;21.95;44.83;99817.94;12217299;19;20018;-81
2022/09/23 11:49:51;;;;;;;7.10;3.92;;;;;;;22.50;43.62;99821.03;12192661;19;20011;-82
2022/09/23 11:53:59;;;;;;;8.02;3.97;;;;;;;22.77;42.51;99812.63;12210754;19;20010;-80
2022/09/23 11:58:09;;;;;;;6.35;3.88;;;;;;;22.83;42.70;99802.84;12216419;19;20095;-82
2022/09/23 12:02:38;;;;;;;5.60;3.60;;;;;;;22.66;43.27;99801.69;12191165;19;20016;-81
2022/09/23 12:06:45;;;;;;;6.85;3.70;;;;;;;22.54;42.59;99798.72;12211737;19;20026;-81
2022/09/23 12:11:18;;;;;;;6.03;3.53;;;;;;;23.14;41.94;99791.41;12195575;19;20513;-82
2022/09/23 12:15:44;;;;;;;5.75;4.25;;;;;;;23.53;40.60;99795.94;12215755;19;20014;-81
2022/09/23 12:19:58;;;;;;;5.25;3.42;;;;;;;23.67;40.13;99784.44;12209878;19;20013;-81
2022/09/23 12:24:13;;;;;;;5.57;3.30;;;;;;;24.31;39.88;99775.81;12227366;19;20012;-82
2022/09/23 12:28:25;;;;;;;4.80;3.30;;;;;;;24.79;38.88;99770.81;12205830;19;20482;-82
2022/09/23 12:32:29;;;;;;;4.70;3.13;;;;;;;25.26;37.93;99767.69;12230537;19;20047;-82
2022/09/23 12:36:34;;;;;;;4.18;3.20;;;;;;;25.62;36.93;99783.00;12226320;19;20103;-81
2022/09/23 12:40:40;;;;;;;6.40;3.90;;;;;;;25.57;36.35;99771.94;12207898;19;20023;-81
2022/09/23 12:44:46;;;;;;;6.78;3.30;;;;;;;25.49;36.65;99767.22;12233731;19;20010;-81
2022/09/23 12:48:56;;;;;;;7.65;3.75;;;;;;;25.35;36.02;99762.75;12230672;19;20571;-80
2022/09/23 12:53:33;;;;;;;4.82;2.90;;;;;;;25.56;36.45;99757.03;12210955;19;20075;-81
2022/09/23 12:57:35;;;;;;;7.10;3.05;;;;;;;25.61;36.56;99764.41;12248245;19;20015;-80
2022/09/23 13:01:38;;;;;;;4.87;3.30;;;;;;;25.10;37.49;99752.56;12223409;19;20044;-82
2022/09/23 13:10:24;;;;;;;4.88;3.47;;;;;;;23.75;38.37;99744.22;12228382;19;20014;-81
2022/09/23 13:14:27;;;;;;;5.60;3.40;;;;;;;23.28;39.09;99744.25;12208333;19;20003;-80
2022/09/23 13:19:18;;;;;;;6.30;3.53;;;;;;;22.94;39.60;99745.16;12226991;19;20075;-82
2022/09/23 13:23:22;;;;;;;7.97;3.53;;;;;;;22.64;40.46;99738.63;12217490;19;20114;-81
2022/09/23 13:27:31;;;;;;;5.72;2.80;;;;;;;22.39;40.97;99729.03;12228699;19;20464;-82
2022/09/23 13:31:33;;;;;;;5.60;3.70;;;;;;;21.91;41.68;99739.22;12204845;19;20309;-80
2022/09/23 13:35:37;;;;;;;4.53;3.90;;;;;;;21.80;41.79;99733.09;12224726;19;20480;-80
2022/09/23 13:39:39;;;;;;;5.88;3.08;;;;;;;21.57;42.57;99729.56;12226085;19;20027;-81
2022/09/23 13:43:46;;;;;;;9.13;3.33;;;;;;;21.75;42.75;99718.41;12209703;19;20005;-78
2022/09/23 13:47:50;;;;;;;9.05;3.95;;;;;;;21.95;42.51;99717.78;12232962;19;20021;-79
2022/09/23 13:51:53;;;;;;;7.15;3.97;;;;;;;22.21;42.08;99708.56;12235252;19;20007;-81
2022/09/23 13:56:00;;;;;;;6.70;4.80;;;;;;;22.23;41.94;99703.47;12222428;19;20058;-78
2022/09/23 14:00:10;;;;;;;5.72;4.03;;;;;;;22.23;42.17;99698.66;12263310;19;20025;-78
2022/09/23 14:04:23;;;;;;;4.68;3.65;;;;;;;22.30;42.26;99684.94;12264714;19;20002;-80
2022/09/23 14:08:26;;;;;;;5.70;4.00;;;;;;;22.06;43.23;99684.59;12241276;19;20011;-78
2022/09/23 14:12:28;;;;;;;7.63;4.32;;;;;;;21.85;43.18;99676.81;12256130;19;20006;-80
2022/09/23 14:16:38;;;;;;;7.45;3.65;;;;;;;21.65;43.57;99677.44;12214357;19;20018;-78
2022/09/23 14:20:49;;;;;;;6.88;3.50;;;;;;;21.36;43.71;99667.69;12228583;19;20348;-82
2022/09/23 14:24:52;;;;;;;5.30;2.80;;;;;;;21.22;43.67;99671.72;12223708;19;20017;-83
2022/09/23 14:28:55;;;;;;;5.22;3.00;;;;;;;21.22;43.55;99675.34;12193652;19;20083;-82
2022/09/23 14:32:57;;;;;;;7.70;3.10;;;;;;;21.28;42.94;99668.44;12226119;19;20062;-82
2022/09/23 14:41:48;;;;;;;9.45;3.80;;;;;;;22.21;41.41;99664.47;12200411;19;20010;-80
2022/09/23 14:45:53;;;;;;;5.15;2.65;;;;;;;22.44;40.74;99658.69;12226231;19;20455;-82
2022/09/23 14:54:33;;;;;;;7.72;2.88;;;;;;;22.01;42.15;99659.50;12213207;19;20074;-81
2022/09/23 14:58:44;;;;;;;7.95;3.35;;;;;;;21.67;42.48;99655.53;12199483;19;20014;-83
2022/09/23 15:03:10;;;;;;;4.28;2.72;;;;;;;21.30;43.01;99651.31;12228398;19;20010;-82
2022/09/23 15:07:17;;;;;;;5.15;2.65;;;;;;;20.98;43.93;99647.72;12218428;19;20106;-82
2022/09/23 15:11:20;;;;;;;5.13;3.00;;;;;;;20.52;45.27;99645.31;12195338;19;20037;-81
2022/09/23 15:15:26;;;;;;;4.53;2.90;;;;;;;20.40;45.16;99655.13;12208713;19;20467;-82
2022/09/23 15:19:30;;;;;;;7.70;2.63;;;;;;;20.36;45.38;99651.31;12195081;19;20348;-82
2022/09/23 15:23:40;;;;;;;9.57;3.47;;;;;;;20.22;46.31;99645.78;12214566;19;20040;-80
2022/09/23 15:27:55;;;;;;;7.78;2.88;;;;;;;20.25;46.47;99641.50;12214725;19;20010;-80
2022/09/23 15:31:57;;;;;;;5.45;2.83;;;;;;;20.23;45.90;99638.22;12190786;19;20013;-79
2022/09/23 15:35:59;;;;;;;4.97;2.28;;;;;;;20.21;46.08;99646.94;12214020;19;20014;-80
2022/09/23 15:40:01;;;;;;;9.80;2.97;;;;;;;19.98;46.57;99639.66;12214578;19;20011;-81
2022/09/23 15:44:14;;;;;;;5.83;3.33;;;;;;;19.81;46.72;99637.56;12191829;19;20014;-81
2022/09/23 15:48:30;;;;;;;9.15;2.72;;;;;;;19.72;47.16;99642.22;12210856;19;20017;-80
2022/09/23 15:52:32;;;;;;;7.13;2.80;;;;;;;19.61;47.86;99647.22;12198142;19;20042;-80
2022/09/23 15:56:33;;;;;;;6.05;2.75;;;;;;;19.44;48.70;99647.03;12230892;19;20030;-80
2022/09/23 16:00:35;;;;;;;4.97;2.65;;;;;;;19.21;50.12;99641.34;12234938;19;20099;-80
2022/09/23 16:04:37;;;;;;;9.10;3.50;;;;;;;19.10;50.59;99645.53;12206503;19;20009;-79
2022/09/23 16:08:41;;;;;;;9.27;4.75;;;;;;;19.10;50.56;99639.94;12222027;19;20014;-80
2022/09/23 16:12:42;;;;;;;5.35;3.13;;;;;;;19.07;51.20;99634.97;12218446;19;20023;-80
2022/09/23 16:16:46;;;;;;;3.75;2.70;;;;;;;18.97;51.37;99629.56;12196773;19;20092;-81
2022/09/23 16:20:49;;;;;;;5.25;3.53;;;;;;;18.81;52.30;99629.06;12229748;19;20022;-81
2022/09/23 16:24:50;;;;;;;5.72;2.67;;;;;;;18.67;52.90;99629.84;12228629;19;20026;-80
2022/09/23 16:28:54;;;;;;;7.50;2.80;;;;;;;18.59;53.94;99630.56;12207318;19;20010;-80
2022/09/23 16:32:56;;;;;;;5.85;3.33;;;;;;;18.41;55.18;99623.91;12230116;19;20034;-82
2022/09/23 16:36:57;;;;;;;4.88;2.70;;;;;;;18.23;56.27;99619.19;12224038;19;20443;-82
2022/09/23 16:40:59;;;;;;;4.68;2.95;;;;;;;18.03;57.52;99617.59;12203193;19;20037;-82
2022/09/23 16:45:01;;;;;;;8.73;2.70;;;;;;;17.84;59.03;99619.56;12227074;19;20537;-82
2022/09/23 16:49:03;;;;;;;5.80;2.55;;;;;;;17.64;60.37;99620.66;12221822;19;20252;-83
2022/09/23 16:53:05;;;;;;;6.83;3.00;;;;;;;17.45;61.25;99612.31;12204694;19;20011;-82
2022/09/23 16:57:08;;;;;;;7.03;3.13;;;;;;;17.29;61.89;99626.47;12224705;19;20259;-82
2022/09/23 17:05:37;;;;;;;9.13;2.83;;;;;;;16.97;63.18;99624.34;12204934;19;20010;-83
2022/09/23 17:09:38;;;;;;;8.77;3.00;;;;;;;16.82;64.02;99621.75;12225705;19;20029;-83
2022/09/23 17:13:41;;;;;;;13.27;3.42;;;;;;;16.68;64.47;99616.03;12226152;19;20018;-83
2022/09/23 17:17:42;;;;;;;5.50;3.00;;;;;;;16.56;65.37;99608.09;12236656;19;20442;-83
2022/09/23 17:21:44;;;;;;;6.57;2.70;;;;;;;16.43;66.35;99625.47;12225889;19;20007;-83
2022/09/23 17:25:48;;;;;;;6.97;2.58;;;;;;;16.34;66.85;99627.25;12205257;19;20478;-83
2022/09/23 17:29:50;;;;;;;7.32;3.30;;;;;;;16.18;67.28;99612.63;12223895;19;20002;-83
2022/09/23 17:33:52;;;;;;;7.65;3.28;;;;;;;16.04;67.85;99617.22;12223586;19;20014;-80
2022/09/23 17:37:54;;;;;;;7.80;3.17;;;;;;;15.91;69.05;99614.00;12198697;19;20011;-83
2022/09/23 17:41:57;;;;;;;6.38;3.22;;;;;;;15.78;69.53;99620.19;12223616;19;20007;-83
2022/09/23 17:46:13;;;;;;;4.80;2.97;;;;;;;15.64;70.14;99617.19;12222321;19;20477;-83
2022/09/23 17:50:16;;;;;;;6.82;2.80;;;;;;;15.53;70.31;99612.84;12202113;19;20015;-83
2022/09/23 17:54:17;;;;;;;6.20;2.67;;;;;;;15.46;70.52;99606.75;12218894;19;20002;-83
2022/09/23 17:58:23;;;;;;;6.13;3.17;;;;;;;15.38;71.27;99604.63;12220297;19;20010;-83
2022/09/23 18:02:24;;;;;;;10.02;3.30;;;;;;;15.32;71.42;99630.72;12202559;19;20066;-83
2022/09/23 18:06:30;;;;;;;8.07;3.08;;;;;;;15.26;71.92;99624.38;12222284;19;20039;-83
2022/09/23 18:10:32;;;;;;;7.35;2.80;;;;;;;15.20;71.99;99612.47;12196805;19;20003;-83
2022/09/23 18:14:33;;;;;;;6.80;3.15;;;;;;;15.14;72.69;99596.13;12218191;19;20011;-82
2022/09/23 18:18:35;;;;;;;5.32;3.38;;;;;;;15.07;73.34;99610.31;12219250;19;20011;-83
2022/09/23 18:22:36;;;;;;;5.53;2.85;;;;;;;15.02;73.47;99607.53;12203546;19;20463;-82
2022/09/23 18:26:38;;;;;;;5.70;3.13;;;;;;;14.99;73.91;99599.78;12222022;19;20087;-82
2022/09/23 18:30:51;;;;;;;6.07;3.00;;;;;;;14.95;74.43;99593.97;12218886;19;20010;-82
2022/09/23 18:34:52;;;;;;;8.50;3.55;;;;;;;14.90;74.32;99591.25;12199560;19;20054;-83
2022/09/23 18:38:54;;;;;;;5.15;3.63;;;;;;;14.87;74.46;99602.88;12222593;19;20010;-83
2022/09/23 18:42:56;;;;;;;8.07;3.40;;;;;;;14.85;74.62;99609.88;12225806;19;20017;-82
2022/09/23 18:46:57;;;;;;;8.23;3.20;;;;;;;14.78;75.35;99616.53;12200302;19;20014;-81
2022/09/23 18:50:59;;;;;;;7.90;3.50;;;;;;;14.75;75.33;99611.56;12238295;19;20021;-79
2022/09/23 18:55:00;;;;;;;8.27;3.75;;;;;;;14.72;76.06;99611.28;12241911;19;20011;-79
2022/09/23 18:59:06;;;;;;;6.88;3.10;;;;;;;14.70;76.44;99591.31;12216241;19;20131;-79
2022/09/23 19:03:08;;;;;;;4.85;3.10;;;;;;;14.70;76.35;99588.56;12239038;19;20039;-80
2022/09/23 19:07:09;;;;;;;6.35;3.10;;;;;;;14.70;76.34;99588.56;12234516;19;20067;-80
2022/09/23 19:11:13;;;;;;;8.90;3.10;;;;;;;14.68;76.66;99601.88;12212553;19;20392;-80
2022/09/23 19:15:14;;;;;;;4.80;3.10;;;;;;;14.65;76.77;99605.19;12233467;19;20166;-79
2022/09/23 19:19:16;;;;;;;10.63;3.17;;;;;;;14.63;76.86;99597.16;12232833;19;20010;-80
2022/09/23 19:23:19;;;;;;;4.95;3.10;;;;;;;14.62;77.25;99591.91;12217525;19;20046;-79
2022/09/23 19:27:22;;;;;;;5.22;2.80;;;;;;;14.59;77.30;99591.34;12240117;19;20022;-79
2022/09/23 19:31:28;;;;;;;9.43;3.22;;;;;;;14.57;77.46;99590.81;12242697;19;20010;-80
2022/09/23 19:35:32;;;;;;;6.78;3.42;;;;;;;14.55;77.53;99592.19;12245274;19;20015;-80
2022/09/23 19:39:36;;;;;;;3.67;2.88;;;;;;;14.52;77.59;99585.28;12245123;19;20070;-80